Time;durP1;ratioP1;P1;durP2;ratioP2;P2;SDS_P1;SDS_P2;PMS_P1;PMS_P2;Temp;Humidity;BMP_temperature;BMP_pressure;BME280_temperature;BME280_humidity;BME280_pressure;Samples;Min_cycle;Max_cycle;Signal;HPM_P1;HPM_P2
2021/03/12 00:00:43;;;;;;;6.25;1.15;;;;;;;-143.98;100.00;68091.63;5074843;28;20052;-81
2021/03/12 00:03:14;;;;;;;8.13;1.10;;;;;;;-143.98;100.00;68091.63;5073438;28;20105;-82
2021/03/12 00:05:49;;;;;;;12.25;1.58;;;;;;;-143.98;100.00;68091.63;5073439;28;20359;-82
2021/03/12 00:08:16;;;;;;;11.80;1.60;;;;;;;-143.98;100.00;68091.63;5073169;28;20112;-83
2021/03/12 00:10:44;;;;;;;8.38;2.50;;;;;;;-143.98;100.00;68091.63;5073104;28;20177;-83
2021/03/12 00:13:11;;;;;;;2.33;0.90;;;;;;;-143.98;100.00;68091.63;5075199;28;20052;-83
2021/03/12 00:15:37;;;;;;;7.07;1.60;;;;;;;-143.98;100.00;68091.63;5076444;28;20056;-83
2021/03/12 00:18:04;;;;;;;11.63;1.70;;;;;;;-143.98;100.00;68091.63;5053663;28;20425;-83
2021/03/12 00:20:38;;;;;;;4.80;1.48;;;;;;;-143.98;100.00;68091.63;5055353;28;20107;-83
2021/03/12 00:23:10;;;;;;;9.00;1.30;;;;;;;-143.98;100.00;68091.63;5055569;28;20052;-83
2021/03/12 00:25:44;;;;;;;6.35;2.67;;;;;;;-143.98;100.00;68091.63;5055047;28;20052;-82
2021/03/12 00:28:17;;;;;;;3.88;1.30;;;;;;;-143.98;100.00;68091.63;5089350;28;20131;-82
2021/03/12 00:30:47;;;;;;;6.85;1.50;;;;;;;-143.98;100.00;68091.63;5054534;28;20049;-82
2021/03/12 00:33:14;;;;;;;5.30;1.58;;;;;;;-143.98;100.00;68091.63;5071891;28;20052;-82
2021/03/12 00:35:43;;;;;;;10.48;2.65;;;;;;;-143.98;100.00;68091.63;5054385;28;20174;-82
2021/03/12 00:38:11;;;;;;;9.95;2.80;;;;;;;-143.98;100.00;68091.63;5038920;28;20118;-82
2021/03/12 00:40:47;;;;;;;6.80;2.10;;;;;;;-143.98;100.00;68091.63;5070862;28;20151;-82
2021/03/12 00:43:20;;;;;;;10.52;2.45;;;;;;;-143.98;100.00;68091.63;5048276;28;20075;-82
2021/03/12 00:45:53;;;;;;;11.02;2.35;;;;;;;-143.98;100.00;68091.63;5064012;28;20412;-82
2021/03/12 00:48:20;;;;;;;10.40;2.30;;;;;;;-143.98;100.00;68091.63;5065689;28;20052;-82
2021/03/12 00:50:56;;;;;;;10.75;3.38;;;;;;;-143.98;100.00;68091.63;5079074;28;20061;-82
2021/03/12 00:53:23;;;;;;;8.27;2.83;;;;;;;-143.98;100.00;68091.63;5060113;28;20090;-82
2021/03/12 00:55:54;;;;;;;11.27;3.55;;;;;;;-143.98;100.00;68091.63;5059346;28;20071;-82
2021/03/12 00:58:22;;;;;;;12.63;2.95;;;;;;;-143.98;100.00;68091.63;5076532;28;20083;-81
2021/03/12 01:00:49;;;;;;;15.60;3.40;;;;;;;-143.98;100.00;68091.63;5092454;28;20056;-81
2021/03/12 01:03:16;;;;;;;10.75;2.83;;;;;;;-143.98;100.00;68091.63;5058831;28;20113;-81
2021/03/12 01:05:46;;;;;;;14.05;3.60;;;;;;;-143.98;100.00;68091.63;5108824;28;20406;-81
2021/03/12 01:08:15;;;;;;;8.43;2.30;;;;;;;-143.98;100.00;68091.63;5058423;28;20044;-80
2021/03/12 01:10:41;;;;;;;15.65;3.70;;;;;;;-143.98;100.00;68091.63;5054623;28;20079;-80
2021/03/12 01:13:09;;;;;;;8.40;2.58;;;;;;;-143.98;100.00;68091.63;5054887;28;20087;-80
2021/03/12 01:15:35;;;;;;;17.92;3.88;;;;;;;-143.98;100.00;68091.63;5053561;28;20238;-80
2021/03/12 01:18:04;;;;;;;15.40;2.80;;;;;;;-143.98;100.00;68091.63;5053622;28;20135;-80
2021/03/12 01:20:35;;;;;;;9.90;3.15;;;;;;;-143.98;100.00;68091.63;5086781;28;20501;-80
2021/03/12 01:23:02;;;;;;;19.70;3.50;;;;;;;-143.98;100.00;68091.63;5054123;28;20432;-80
2021/03/12 01:25:41;;;;;;;11.98;2.67;;;;;;;-143.98;100.00;68091.63;5052371;28;20053;-80
2021/03/12 01:28:08;;;;;;;10.77;3.05;;;;;;;-143.98;100.00;68091.63;5054157;28;20421;-80
2021/03/12 01:30:44;;;;;;;11.68;4.15;;;;;;;-143.98;100.00;68091.63;5098656;28;20055;-80
2021/03/12 01:33:11;;;;;;;13.65;4.50;;;;;;;-143.98;100.00;68091.63;5085543;28;20100;-80
2021/03/12 01:35:41;;;;;;;15.20;3.58;;;;;;;-143.98;100.00;68091.63;5066238;28;20143;-80
2021/03/12 01:38:08;;;;;;;16.67;4.03;;;;;;;-143.98;100.00;68091.63;5083064;28;20052;-80
2021/03/12 01:40:47;;;;;;;18.27;3.55;;;;;;;-143.98;100.00;68091.63;5073628;28;20055;-80
2021/03/12 01:43:13;;;;;;;20.85;4.38;;;;;;;-143.98;100.00;68091.63;5075587;28;20138;-80
2021/03/12 01:45:42;;;;;;;18.40;3.65;;;;;;;-143.98;100.00;68091.63;5090671;28;20060;-80
2021/03/12 01:48:14;;;;;;;12.32;3.60;;;;;;;-143.98;100.00;68091.63;5111868;28;20436;-80
2021/03/12 01:50:43;;;;;;;19.73;3.60;;;;;;;-143.98;100.00;68091.63;5078807;28;20405;-80
2021/03/12 01:53:15;;;;;;;15.20;3.30;;;;;;;-143.98;100.00;68091.63;5114873;28;20123;-79
2021/03/12 01:55:56;;;;;;;18.55;3.53;;;;;;;-143.98;100.00;68091.63;5065128;28;20060;-80
2021/03/12 01:58:24;;;;;;;15.75;4.13;;;;;;;-143.98;100.00;68091.63;5083999;28;20106;-80
2021/03/12 02:00:54;;;;;;;18.05;4.30;;;;;;;-143.98;100.00;68091.63;5129013;28;20103;-80
2021/03/12 02:03:24;;;;;;;21.52;4.22;;;;;;;-143.98;100.00;68091.63;5121177;28;20048;-80
2021/03/12 02:05:54;;;;;;;17.25;4.55;;;;;;;-143.98;100.00;68091.63;5074333;28;20053;-80
2021/03/12 02:08:23;;;;;;;27.83;6.32;;;;;;;-143.98;100.00;68091.63;5058900;28;20128;-80
2021/03/12 02:10:53;;;;;;;19.00;4.20;;;;;;;-143.98;100.00;68091.63;5058528;28;20063;-83
2021/03/12 02:13:31;;;;;;;21.00;4.40;;;;;;;-143.98;100.00;68091.63;5044211;28;20110;-83
2021/03/12 02:16:03;;;;;;;19.23;4.03;;;;;;;-143.98;100.00;68091.63;5057660;28;20052;-83
2021/03/12 02:18:33;;;;;;;23.58;5.13;;;;;;;-143.98;100.00;68091.63;5059353;28;20064;-83
2021/03/12 02:21:14;;;;;;;22.20;4.65;;;;;;;-143.98;100.00;68091.63;5059277;28;20075;-82
2021/03/12 02:24:11;;;;;;;21.05;4.93;;;;;;;-143.98;100.00;68091.63;5060163;28;20068;-85
2021/03/12 02:26:44;;;;;;;15.13;3.63;;;;;;;-143.98;100.00;68091.63;5056000;28;20049;-83
2021/03/12 02:29:24;;;;;;;18.42;3.88;;;;;;;-143.98;100.00;68091.63;5073175;28;20115;-83
2021/03/12 02:32:02;;;;;;;16.58;3.30;;;;;;;-143.98;100.00;68091.63;5059155;28;20057;-83
2021/03/12 02:34:34;;;;;;;18.77;4.15;;;;;;;-143.98;100.00;68091.63;5042842;28;20052;-83
2021/03/12 02:37:03;;;;;;;12.38;3.58;;;;;;;-143.98;100.00;68091.63;5075520;28;20054;-83
2021/03/12 02:39:32;;;;;;;14.82;3.55;;;;;;;-143.98;100.00;68091.63;5042755;28;20045;-83
2021/03/12 02:42:03;;;;;;;12.15;3.10;;;;;;;-143.98;100.00;68091.63;5041082;28;20349;-84
2021/03/12 02:44:31;;;;;;;15.52;3.08;;;;;;;-143.98;100.00;68091.63;5041499;28;20244;-83
2021/03/12 02:47:02;;;;;;;17.58;3.40;;;;;;;-143.98;100.00;68091.63;5057921;28;20053;-83
2021/03/12 02:49:30;;;;;;;16.38;2.95;;;;;;;-143.98;100.00;68091.63;5041210;28;20064;-83
2021/03/12 02:51:56;;;;;;;19.20;4.00;;;;;;;-143.98;100.00;68091.63;5056615;28;20050;-83
2021/03/12 02:54:23;;;;;;;8.88;3.25;;;;;;;-143.98;100.00;68091.63;5020256;28;20127;-83
2021/03/12 02:56:49;;;;;;;20.17;3.28;;;;;;;-143.98;100.00;68091.63;5069989;28;20063;-83
2021/03/12 02:59:20;;;;;;;12.32;4.15;;;;;;;-143.98;100.00;68091.63;5055139;28;20065;-83
2021/03/12 03:01:54;;;;;;;17.55;2.90;;;;;;;-143.98;100.00;68091.63;5075876;28;20056;-83
2021/03/12 03:04:24;;;;;;;16.88;2.88;;;;;;;-143.98;100.00;68091.63;5055840;28;20088;-83
2021/03/12 03:06:51;;;;;;;13.23;3.42;;;;;;;-143.98;100.00;68091.63;5039335;28;20060;-83
2021/03/12 03:09:23;;;;;;;14.52;3.38;;;;;;;-143.98;100.00;68091.63;5057411;28;20325;-83
2021/03/12 03:11:53;;;;;;;15.13;3.22;;;;;;;-143.98;100.00;68091.63;5073028;28;20155;-83
2021/03/12 03:14:19;;;;;;;12.38;2.85;;;;;;;-143.98;100.00;68091.63;5057296;28;20332;-83
2021/03/12 03:16:48;;;;;;;19.52;2.78;;;;;;;-143.98;100.00;68091.63;5040000;28;20143;-83
2021/03/12 03:19:15;;;;;;;15.45;3.45;;;;;;;-143.98;100.00;68091.63;5055668;28;20387;-83
2021/03/12 03:21:46;;;;;;;13.07;2.97;;;;;;;-143.98;100.00;68091.63;5039212;28;20071;-83
2021/03/12 03:24:14;;;;;;;10.15;3.42;;;;;;;-143.98;100.00;68091.63;5023927;28;20057;-83
2021/03/12 03:26:40;;;;;;;18.13;3.65;;;;;;;-143.98;100.00;68091.63;5070557;28;20057;-83
2021/03/12 03:29:07;;;;;;;12.30;2.90;;;;;;;-143.98;100.00;68091.63;5055232;28;20076;-83
2021/03/12 03:31:35;;;;;;;13.50;3.45;;;;;;;-143.98;100.00;68091.63;5088923;28;20256;-83
2021/03/12 03:34:02;;;;;;;11.13;3.10;;;;;;;-143.98;100.00;68091.63;5073884;28;20084;-83
2021/03/12 03:36:34;;;;;;;12.82;2.50;;;;;;;-143.98;100.00;68091.63;5056505;28;20064;-83
2021/03/12 03:39:00;;;;;;;15.48;3.33;;;;;;;-143.98;100.00;68091.63;5072529;28;20053;-83
2021/03/12 03:41:26;;;;;;;14.68;3.65;;;;;;;-143.98;100.00;68091.63;5071521;28;20306;-82
2021/03/12 03:43:54;;;;;;;11.20;3.30;;;;;;;-143.98;100.00;68091.63;5055489;28;20132;-82
2021/03/12 03:46:24;;;;;;;9.70;3.22;;;;;;;-143.98;100.00;68091.63;5055182;28;20060;-82
2021/03/12 03:48:51;;;;;;;13.55;3.70;;;;;;;-143.98;100.00;68091.63;5039224;28;20136;-82
2021/03/12 03:51:18;;;;;;;12.25;3.15;;;;;;;-143.98;100.00;68091.63;5087689;28;20060;-83
2021/03/12 03:53:45;;;;;;;13.27;3.60;;;;;;;-143.98;100.00;68091.63;5054268;28;20114;-82
2021/03/12 03:56:18;;;;;;;12.07;3.15;;;;;;;-143.98;100.00;68091.63;5073406;28;20061;-82
2021/03/12 03:58:45;;;;;;;16.23;3.55;;;;;;;-143.98;100.00;68091.63;5076060;28;20049;-83
2021/03/12 04:01:14;;;;;;;15.60;3.45;;;;;;;-143.98;100.00;68091.63;5075128;28;20493;-82
2021/03/12 04:03:41;;;;;;;14.52;3.65;;;;;;;-143.98;100.00;68091.63;5064200;28;20429;-82
2021/03/12 04:06:12;;;;;;;14.38;3.67;;;;;;;-143.98;100.00;68091.63;5074241;28;20099;-83
2021/03/12 04:08:39;;;;;;;18.48;3.90;;;;;;;-143.98;100.00;68091.63;5075055;28;20067;-83
2021/03/12 04:11:07;;;;;;;15.20;3.50;;;;;;;-143.98;100.00;68091.63;5074654;28;20066;-83
2021/03/12 04:13:42;;;;;;;13.95;3.47;;;;;;;-143.98;100.00;68091.63;5074301;28;20054;-83
2021/03/12 04:16:11;;;;;;;8.85;3.08;;;;;;;-143.98;100.00;68091.63;5071906;28;20048;-84
2021/03/12 04:18:49;;;;;;;15.52;3.53;;;;;;;-143.98;100.00;68091.63;5070249;28;20120;-83
2021/03/12 04:21:18;;;;;;;16.35;3.45;;;;;;;-143.98;100.00;68091.63;5064967;28;20052;-83
2021/03/12 04:23:48;;;;;;;18.50;3.42;;;;;;;-143.98;100.00;68091.63;5077349;28;20280;-84
2021/03/12 04:26:15;;;;;;;16.38;3.55;;;;;;;-143.98;100.00;68091.63;5080278;28;20078;-84
2021/03/12 04:28:43;;;;;;;20.02;5.30;;;;;;;-143.98;100.00;68091.63;5079108;28;20058;-84
2021/03/12 04:31:12;;;;;;;15.57;3.30;;;;;;;-143.98;100.00;68091.63;5079501;28;20425;-84
2021/03/12 04:33:42;;;;;;;14.15;3.42;;;;;;;-143.98;100.00;68091.63;5079207;28;20058;-84
2021/03/12 04:36:12;;;;;;;19.52;3.53;;;;;;;-143.98;100.00;68091.63;5094208;28;20052;-84
2021/03/12 04:38:42;;;;;;;13.68;3.10;;;;;;;-143.98;100.00;68091.63;5075643;28;20320;-84
2021/03/12 04:41:15;;;;;;;10.32;3.05;;;;;;;-143.98;100.00;68091.63;5093988;28;20048;-82
2021/03/12 04:43:45;;;;;;;13.02;3.05;;;;;;;-143.98;100.00;68091.63;5076802;28;20050;-83
2021/03/12 04:46:13;;;;;;;20.33;4.78;;;;;;;-143.98;100.00;68091.63;5095629;28;20051;-83
2021/03/12 04:48:42;;;;;;;17.77;2.85;;;;;;;-143.98;100.00;68091.63;5094821;28;20052;-83
2021/03/12 04:51:09;;;;;;;12.25;3.72;;;;;;;-143.98;100.00;68091.63;5094457;28;20079;-83
2021/03/12 04:53:40;;;;;;;12.55;2.92;;;;;;;-143.98;100.00;68091.63;5077441;28;20040;-83
2021/03/12 04:56:09;;;;;;;14.38;2.75;;;;;;;-143.98;100.00;68091.63;5078767;28;20059;-83
2021/03/12 04:58:39;;;;;;;14.73;3.40;;;;;;;-143.98;100.00;68091.63;5084984;28;20096;-83
2021/03/12 05:01:08;;;;;;;17.67;3.00;;;;;;;-143.98;100.00;68091.63;5088682;28;20036;-82
2021/03/12 05:03:41;;;;;;;12.80;3.13;;;;;;;-143.98;100.00;68091.63;5060533;28;20258;-80
2021/03/12 05:06:08;;;;;;;13.15;3.35;;;;;;;-143.98;100.00;68091.63;5105740;28;20063;-80
2021/03/12 05:08:40;;;;;;;12.43;3.42;;;;;;;-143.98;100.00;68091.63;5088268;28;20083;-81
2021/03/12 05:11:11;;;;;;;10.15;2.83;;;;;;;-143.98;100.00;68091.63;5078627;28;20052;-79
2021/03/12 05:13:38;;;;;;;11.55;3.03;;;;;;;-143.98;100.00;68091.63;5056312;28;20240;-80
2021/03/12 05:16:07;;;;;;;12.25;2.40;;;;;;;-143.98;100.00;68091.63;5084203;28;20117;-80
2021/03/12 05:18:35;;;;;;;11.95;2.78;;;;;;;-143.98;100.00;68091.63;5070268;28;20050;-80
2021/03/12 05:21:04;;;;;;;8.57;2.72;;;;;;;-143.98;100.00;68091.63;5082013;28;20052;-79
2021/03/12 05:23:31;;;;;;;16.42;2.92;;;;;;;-143.98;100.00;68091.63;5075676;28;20159;-81
2021/03/12 05:25:57;;;;;;;13.50;3.38;;;;;;;-143.98;100.00;68091.63;5057422;28;20080;-80
2021/03/12 05:28:23;;;;;;;10.85;2.72;;;;;;;-143.98;100.00;68091.63;5058396;28;20088;-80
2021/03/12 05:30:49;;;;;;;38.80;4.20;;;;;;;-143.98;100.00;68091.63;5074231;28;20052;-80
2021/03/12 05:33:16;;;;;;;30.05;3.60;;;;;;;-143.98;100.00;68091.63;5072093;28;20113;-81
2021/03/12 05:35:48;;;;;;;27.88;3.17;;;;;;;-143.98;100.00;68091.63;5072716;28;20100;-81
2021/03/12 05:38:16;;;;;;;9.05;2.38;;;;;;;-143.98;100.00;68091.63;5055134;28;20062;-80
2021/03/12 05:40:43;;;;;;;8.13;2.67;;;;;;;-143.98;100.00;68091.63;5057751;28;20112;-80
2021/03/12 05:43:15;;;;;;;10.18;3.03;;;;;;;-143.98;100.00;68091.63;5093765;28;20130;-80
2021/03/12 05:45:51;;;;;;;19.15;3.80;;;;;;;-143.98;100.00;68091.63;5091544;28;20095;-81
2021/03/12 05:48:18;;;;;;;22.80;3.20;;;;;;;-143.98;100.00;68091.63;5073362;28;20056;-81
2021/03/12 05:50:51;;;;;;;14.30;3.58;;;;;;;-143.98;100.00;68091.63;5054169;28;20083;-81
2021/03/12 05:53:18;;;;;;;13.45;3.08;;;;;;;-143.98;100.00;68091.63;5101276;28;20132;-81
2021/03/12 05:55:47;;;;;;;17.77;4.00;;;;;;;-143.98;100.00;68091.63;5103137;28;20443;-81
2021/03/12 05:58:17;;;;;;;16.23;3.50;;;;;;;-143.98;100.00;68091.63;5050742;28;20110;-81
2021/03/12 06:00:46;;;;;;;16.98;3.13;;;;;;;-143.98;100.00;68091.63;5050901;28;20535;-81
2021/03/12 06:03:18;;;;;;;32.10;5.55;;;;;;;-143.98;100.00;68091.63;5049734;28;20106;-81
2021/03/12 06:05:47;;;;;;;15.68;2.80;;;;;;;-143.98;100.00;68091.63;5068298;28;20208;-81
2021/03/12 06:08:17;;;;;;;12.15;2.58;;;;;;;-143.98;100.00;68091.63;5067020;28;20061;-81
2021/03/12 06:10:46;;;;;;;19.40;3.33;;;;;;;-143.98;100.00;68091.63;5048970;28;20048;-81
2021/03/12 06:13:12;;;;;;;14.70;3.15;;;;;;;-143.98;100.00;68091.63;5045418;28;20084;-81
2021/03/12 06:15:57;;;;;;;18.98;2.97;;;;;;;-143.98;100.00;68091.63;5046032;28;20146;-81
2021/03/12 06:18:27;;;;;;;11.68;2.97;;;;;;;-143.98;100.00;68091.63;5050386;28;20115;-81
2021/03/12 06:20:54;;;;;;;13.77;4.00;;;;;;;-143.98;100.00;68091.63;5048789;28;20209;-81
2021/03/12 06:23:36;;;;;;;12.40;2.35;;;;;;;-143.98;100.00;68091.63;5048850;28;20068;-81
2021/03/12 06:26:06;;;;;;;23.20;2.85;;;;;;;-143.98;100.00;68091.63;5082281;28;20048;-82
2021/03/12 06:28:33;;;;;;;17.60;2.70;;;;;;;-143.98;100.00;68091.63;5082227;28;20118;-82
2021/03/12 06:30:59;;;;;;;12.43;2.35;;;;;;;-143.98;100.00;68091.63;5052696;28;20527;-81
2021/03/12 06:33:37;;;;;;;19.80;3.15;;;;;;;-143.98;100.00;68091.63;5072384;28;20266;-81
2021/03/12 06:36:04;;;;;;;14.38;2.63;;;;;;;-143.98;100.00;68091.63;5086001;28;20052;-82
2021/03/12 06:38:34;;;;;;;7.30;2.58;;;;;;;-143.98;100.00;68091.63;5054088;28;20190;-82
2021/03/12 06:41:02;;;;;;;13.43;2.97;;;;;;;-143.98;100.00;68091.63;5049346;28;20071;-82
2021/03/12 06:43:28;;;;;;;16.48;2.60;;;;;;;-143.98;100.00;68091.63;5048738;28;20134;-82
2021/03/12 06:45:56;;;;;;;13.65;2.65;;;;;;;-143.98;100.00;68091.63;5048605;28;20073;-81
2021/03/12 06:48:27;;;;;;;18.10;2.83;;;;;;;-143.98;100.00;68091.63;5048093;28;20136;-81
2021/03/12 06:51:13;;;;;;;9.25;2.08;;;;;;;-143.98;100.00;68091.63;5048632;28;20048;-82
2021/03/12 06:53:45;;;;;;;6.45;2.22;;;;;;;-143.98;100.00;68091.63;5051503;28;20064;-82
2021/03/12 06:56:16;;;;;;;16.08;2.40;;;;;;;-143.98;100.00;68091.63;5066041;28;20377;-82
2021/03/12 06:59:01;;;;;;;18.65;2.63;;;;;;;-143.98;100.00;68091.63;5064320;28;20044;-82
2021/03/12 07:01:29;;;;;;;12.52;2.72;;;;;;;-143.98;100.00;68091.63;5072709;28;20079;-83
2021/03/12 07:04:08;;;;;;;20.25;2.80;;;;;;;-143.98;100.00;68091.63;5086386;28;20221;-81
2021/03/12 07:06:55;;;;;;;11.07;2.42;;;;;;;-143.98;100.00;68091.63;5072749;28;20044;-82
2021/03/12 07:09:26;;;;;;;12.05;2.53;;;;;;;-143.98;100.00;68091.63;5074799;28;20083;-81
2021/03/12 07:12:04;;;;;;;7.47;2.05;;;;;;;-143.98;100.00;68091.63;5071337;28;20048;-81
2021/03/12 07:14:33;;;;;;;13.73;1.67;;;;;;;-143.98;100.00;68091.63;5059214;28;20055;-81
2021/03/12 07:17:00;;;;;;;9.93;1.85;;;;;;;-143.98;100.00;68091.63;5083569;28;20286;-81
2021/03/12 07:19:27;;;;;;;10.27;2.22;;;;;;;-143.98;100.00;68091.63;5100042;28;20044;-81
2021/03/12 07:22:00;;;;;;;12.43;2.00;;;;;;;-143.98;100.00;68091.63;5081980;28;20154;-81
2021/03/12 07:24:29;;;;;;;10.57;1.70;;;;;;;-143.98;100.00;68091.63;5093096;28;20200;-82
2021/03/12 07:26:57;;;;;;;13.13;2.60;;;;;;;-143.98;100.00;68091.63;5089472;28;20059;-82
2021/03/12 07:29:29;;;;;;;13.77;2.42;;;;;;;-143.98;100.00;68091.63;5087073;28;20056;-82
2021/03/12 07:32:04;;;;;;;15.55;2.38;;;;;;;-143.98;100.00;68091.63;5089589;28;20060;-81
2021/03/12 07:34:35;;;;;;;11.80;2.22;;;;;;;-143.98;100.00;68091.63;5056973;28;20308;-80
2021/03/12 07:37:02;;;;;;;13.75;2.45;;;;;;;-143.98;100.00;68091.63;5052567;28;20072;-81
2021/03/12 07:39:42;;;;;;;10.10;2.17;;;;;;;-143.98;100.00;68091.63;5068178;28;20061;-81
2021/03/12 07:42:09;;;;;;;12.05;2.60;;;;;;;-143.98;100.00;68091.63;5050288;28;20080;-80
2021/03/12 07:44:52;;;;;;;12.45;2.53;;;;;;;-143.98;100.00;68091.63;5050386;28;20133;-80
2021/03/12 07:47:28;;;;;;;7.18;2.13;;;;;;;-143.98;100.00;68091.63;5067233;28;20234;-81
2021/03/12 07:49:55;;;;;;;15.45;3.17;;;;;;;-143.98;100.00;68091.63;5071722;28;20098;-80
2021/03/12 07:52:48;;;;;;;13.57;2.42;;;;;;;-143.98;100.00;68091.63;5071828;28;20227;-80
2021/03/12 07:55:35;;;;;;;13.77;2.80;;;;;;;-143.98;100.00;68091.63;5056058;28;20044;-81
2021/03/12 07:58:14;;;;;;;17.98;3.22;;;;;;;-143.98;100.00;68091.63;5085217;28;20044;-81
2021/03/12 08:00:52;;;;;;;11.30;2.42;;;;;;;-143.98;100.00;68091.63;5117756;28;20044;-81
2021/03/12 08:03:39;;;;;;;10.15;2.90;;;;;;;-143.98;100.00;68091.63;5070256;28;20054;-80
2021/03/12 08:06:16;;;;;;;12.38;3.50;;;;;;;-143.98;100.00;68091.63;5102242;28;20232;-80
2021/03/12 08:08:49;;;;;;;16.13;2.95;;;;;;;-143.98;100.00;68091.63;5069137;28;20200;-81
2021/03/12 08:11:53;;;;;;;16.85;3.97;;;;;;;-143.98;100.00;68091.63;5069465;28;20052;-81
2021/03/12 08:14:24;;;;;;;21.05;3.38;;;;;;;-143.98;100.00;68091.63;5070054;28;20467;-81
2021/03/12 08:17:03;;;;;;;18.52;3.35;;;;;;;-143.98;100.00;68091.63;5107580;28;20292;-83
2021/03/12 08:19:39;;;;;;;14.23;2.78;;;;;;;-143.98;100.00;68091.63;5094687;28;20551;-84
2021/03/12 08:22:26;;;;;;;16.30;3.17;;;;;;;-143.98;100.00;68091.63;5109861;28;20056;-83
2021/03/12 08:24:58;;;;;;;13.50;3.42;;;;;;;-143.98;100.00;68091.63;5080566;28;20052;-84
2021/03/12 08:27:50;;;;;;;12.13;3.40;;;;;;;-143.98;100.00;68091.63;5061139;28;20427;-84
2021/03/12 08:30:21;;;;;;;16.67;3.47;;;;;;;-143.98;100.00;68091.63;5093783;28;20168;-83
2021/03/12 08:32:55;;;;;;;12.98;2.90;;;;;;;-143.98;100.00;68091.63;5076616;28;20052;-83
2021/03/12 08:35:40;;;;;;;14.40;3.70;;;;;;;-143.98;100.00;68091.63;5071851;28;20050;-84
2021/03/12 08:38:26;;;;;;;13.13;3.40;;;;;;;-143.98;100.00;68091.63;5073721;28;20050;-83
2021/03/12 08:41:07;;;;;;;13.77;3.50;;;;;;;-143.98;100.00;68091.63;5088510;28;20063;-83
2021/03/12 08:43:41;;;;;;;12.57;3.33;;;;;;;-143.98;100.00;68091.63;5114246;28;20090;-84
2021/03/12 08:46:27;;;;;;;23.02;3.55;;;;;;;-143.98;100.00;68091.63;5078429;28;20185;-84
2021/03/12 08:49:00;;;;;;;13.50;3.63;;;;;;;-143.98;100.00;68091.63;5080371;28;20070;-85
2021/03/12 08:51:39;;;;;;;18.92;4.32;;;;;;;-143.98;100.00;68091.63;5070047;28;20243;-84
2021/03/12 08:54:11;;;;;;;12.10;3.17;;;;;;;-143.98;100.00;68091.63;5061012;28;20080;-84
2021/03/12 08:56:42;;;;;;;14.95;3.33;;;;;;;-143.98;100.00;68091.63;5061057;28;20059;-84
2021/03/12 08:59:11;;;;;;;14.95;3.72;;;;;;;-143.98;100.00;68091.63;5056842;28;20064;-83
2021/03/12 09:01:40;;;;;;;16.90;3.22;;;;;;;-143.98;100.00;68091.63;5072086;28;20089;-83
2021/03/12 09:04:08;;;;;;;16.50;3.45;;;;;;;-143.98;100.00;68091.63;5056399;28;20048;-82
2021/03/12 09:06:40;;;;;;;10.40;3.20;;;;;;;-143.98;100.00;81475.66;5057414;28;20522;-83
2021/03/12 09:09:14;;;;;;;14.15;3.20;;;;;;;-143.98;100.00;80104.19;5073220;28;20143;-84
2021/03/12 09:11:40;;;;;;;16.15;3.20;;;;;;;-143.98;100.00;68091.63;5037844;28;20431;-82
2021/03/12 09:14:12;;;;;;;11.95;3.20;;;;;;;-143.98;0.00;68091.63;5039112;28;20056;-82
2021/03/12 09:16:42;;;;;;;15.75;3.08;;;;;;;-143.98;100.00;95513.66;5072491;28;20237;-83
2021/03/12 09:19:15;;;;;;;18.95;3.00;;;;;;;-143.98;100.00;68091.63;5039386;28;20075;-83
2021/03/12 09:21:43;;;;;;;15.52;3.38;;;;;;;-143.98;100.00;68091.63;5040142;28;20041;-85
2021/03/12 09:24:15;;;;;;;12.80;3.20;;;;;;;-143.98;100.00;68091.63;5070574;28;20048;-83
2021/03/12 09:26:52;;;;;;;20.05;3.35;;;;;;;-143.98;100.00;68091.63;5036600;28;20114;-83
2021/03/12 09:29:26;;;;;;;21.80;3.42;;;;;;;-143.98;100.00;68091.63;5065064;28;20049;-82
2021/03/12 09:32:02;;;;;;;10.93;3.40;;;;;;;-143.98;100.00;68091.63;5047611;28;20097;-82
2021/03/12 09:34:28;;;;;;;15.93;3.50;;;;;;;-143.98;100.00;68091.63;5048387;28;20063;-80
2021/03/12 09:36:58;;;;;;;13.57;3.28;;;;;;;-143.98;100.00;68091.63;5034129;28;20053;-81
2021/03/12 09:39:31;;;;;;;9.25;2.97;;;;;;;-143.98;100.00;68091.63;5030551;28;20041;-81
2021/03/12 09:42:04;;;;;;;7.68;2.80;;;;;;;-143.98;100.00;68091.63;5055163;28;20057;-81
2021/03/12 09:44:34;;;;;;;16.75;3.50;;;;;;;-143.98;100.00;68091.63;5044559;28;20049;-80
2021/03/12 09:47:06;;;;;;;16.52;3.00;;;;;;;-143.98;100.00;68091.63;5038235;28;20044;-80
2021/03/12 09:49:38;;;;;;;11.30;3.92;;;;;;;-143.98;100.00;68091.63;5063453;28;20044;-82
2021/03/12 09:52:19;;;;;;;8.48;2.80;;;;;;;-143.98;100.00;68091.63;5080962;28;20394;-81
2021/03/12 09:54:49;;;;;;;14.52;2.78;;;;;;;-143.98;100.00;68091.63;5079833;28;20056;-81
2021/03/12 09:57:26;;;;;;;10.13;2.80;;;;;;;-143.98;100.00;68091.63;5052429;28;20120;-80
2021/03/12 09:59:52;;;;;;;15.13;3.00;;;;;;;-143.98;100.00;68091.63;5068139;28;20107;-81
2021/03/12 10:02:20;;;;;;;10.75;2.85;;;;;;;-143.98;100.00;68091.63;5083736;28;20681;-81
2021/03/12 10:05:00;;;;;;;11.70;2.38;;;;;;;-143.98;100.00;68091.63;5053109;28;20045;-81
2021/03/12 10:07:47;;;;;;;12.57;2.90;;;;;;;-143.98;100.00;68091.63;5070557;28;20051;-81
2021/03/12 10:10:21;;;;;;;17.10;2.45;;;;;;;-143.98;100.00;68091.63;5085791;28;20063;-81
2021/03/12 10:12:51;;;;;;;8.75;2.90;;;;;;;-143.98;100.00;68091.63;5087339;28;20052;-81
2021/03/12 10:15:33;;;;;;;10.32;2.05;;;;;;;-143.98;100.00;68091.63;5053846;28;20050;-81
2021/03/12 10:18:00;;;;;;;12.40;2.17;;;;;;;-143.98;100.00;68091.63;5052619;28;20040;-81
2021/03/12 10:20:36;;;;;;;8.63;1.95;;;;;;;-143.98;100.00;68091.63;5053453;28;20132;-81
2021/03/12 10:23:10;;;;;;;7.57;1.73;;;;;;;-143.98;100.00;68091.63;5041928;28;20088;-80
2021/03/12 10:25:48;;;;;;;19.13;2.72;;;;;;;-143.98;100.00;68091.63;5047363;28;20072;-80
2021/03/12 10:28:20;;;;;;;6.85;1.85;;;;;;;-143.98;100.00;68091.63;5045762;28;20456;-79
2021/03/12 10:31:01;;;;;;;11.65;2.65;;;;;;;-143.98;100.00;68091.63;5046497;28;20114;-80
2021/03/12 10:33:31;;;;;;;9.93;2.17;;;;;;;-143.98;100.00;68091.63;5048486;28;20148;-80
2021/03/12 10:36:05;;;;;;;10.80;2.40;;;;;;;-143.98;100.00;68091.63;5050570;28;20122;-81
2021/03/12 10:38:35;;;;;;;10.98;2.47;;;;;;;-143.98;100.00;68091.63;5066920;28;20053;-80
2021/03/12 10:41:22;;;;;;;13.43;2.63;;;;;;;-143.98;100.00;68091.63;5048483;28;20139;-80
2021/03/12 10:44:02;;;;;;;10.23;2.20;;;;;;;-143.98;100.00;68091.63;5048307;28;20053;-82
2021/03/12 10:46:31;;;;;;;9.50;2.20;;;;;;;-143.98;100.00;68091.63;5017349;28;20061;-81
2021/03/12 10:49:02;;;;;;;8.82;2.15;;;;;;;-143.98;100.00;68091.63;5047241;28;20645;-83
2021/03/12 10:51:39;;;;;;;12.88;2.58;;;;;;;-143.98;100.00;68091.63;5040319;28;20084;-81
2021/03/12 10:54:13;;;;;;;16.30;2.45;;;;;;;-143.98;100.00;68091.63;5059418;28;20071;-81
2021/03/12 10:56:56;;;;;;;16.30;2.45;;;;;;;-143.98;100.00;68091.63;5066215;28;20043;-81
2021/03/12 10:59:29;;;;;;;7.88;2.53;;;;;;;-143.98;100.00;68091.63;5054233;28;20115;-81
2021/03/12 11:02:13;;;;;;;7.72;1.88;;;;;;;-143.98;100.00;68091.63;5039936;28;20053;-81
2021/03/12 11:04:42;;;;;;;12.32;2.95;;;;;;;-143.98;100.00;68091.63;5043426;28;20413;-82
2021/03/12 11:07:10;;;;;;;11.18;2.20;;;;;;;-143.98;100.00;68091.63;5066705;28;20399;-82
2021/03/12 11:09:38;;;;;;;11.57;2.92;;;;;;;-143.98;100.00;68091.63;5067938;28;20055;-84
2021/03/12 11:12:07;;;;;;;13.05;2.45;;;;;;;-143.98;100.00;68091.63;5050049;28;20044;-84
2021/03/12 11:14:34;;;;;;;13.70;3.00;;;;;;;-143.98;100.00;68091.63;5033019;28;20060;-83
2021/03/12 11:17:04;;;;;;;12.15;2.35;;;;;;;-143.98;100.00;68091.63;5048739;28;20088;-83
2021/03/12 11:19:36;;;;;;;10.80;2.65;;;;;;;-143.98;100.00;68091.63;5050429;28;20056;-82
2021/03/12 11:22:05;;;;;;;8.85;2.45;;;;;;;-143.98;100.00;68091.63;5068105;28;20066;-81